sensor_id;sensor_type;location;lat;lon;timestamp;temperature;humidity
23259;DHT22;11798;51.528;7.240;2023-03-24T00:01:13;11.30;99.90
23259;DHT22;11798;51.528;7.240;2023-03-24T00:03:39;11.30;99.90
23259;DHT22;11798;51.528;7.240;2023-03-24T00:06:06;11.30;99.90
23259;DHT22;11798;51.528;7.240;2023-03-24T00:08:35;11.30;99.90
23259;DHT22;11798;51.528;7.240;2023-03-24T00:11:06;11.30;99.90
23259;DHT22;11798;51.528;7.240;2023-03-24T00:13:33;11.30;99.90
23259;DHT22;11798;51.528;7.240;2023-03-24T00:16:04;11.30;99.90
23259;DHT22;11798;51.528;7.240;2023-03-24T00:18:30;11.30;99.90
23259;DHT22;11798;51.528;7.240;2023-03-24T00:20:56;11.30;99.90
23259;DHT22;11798;51.528;7.240;2023-03-24T00:23:24;11.30;99.90
23259;DHT22;11798;51.528;7.240;2023-03-24T00:26:02;11.30;99.90
23259;DHT22;11798;51.528;7.240;2023-03-24T00:28:33;11.30;99.90
23259;DHT22;11798;51.528;7.240;2023-03-24T00:31:00;11.30;99.90
23259;DHT22;11798;51.528;7.240;2023-03-24T00:33:27;11.30;99.90
23259;DHT22;11798;51.528;7.240;2023-03-24T00:35:56;11.30;99.90
23259;DHT22;11798;51.528;7.240;2023-03-24T00:38:22;11.30;99.90
23259;DHT22;11798;51.528;7.240;2023-03-24T00:40:48;11.30;99.90
23259;DHT22;11798;51.528;7.240;2023-03-24T00:43:15;11.30;99.90
23259;DHT22;11798;51.528;7.240;2023-03-24T00:45:40;11.30;99.90
23259;DHT22;11798;51.528;7.240;2023-03-24T00:48:13;11.40;99.90
23259;DHT22;11798;51.528;7.240;2023-03-24T00:50:43;11.40;99.90
23259;DHT22;11798;51.528;7.240;2023-03-24T00:53:09;11.30;99.90
23259;DHT22;11798;51.528;7.240;2023-03-24T00:55:35;11.40;99.90
23259;DHT22;11798;51.528;7.240;2023-03-24T00:58:02;11.40;99.90
23259;DHT22;11798;51.528;7.240;2023-03-24T01:00:28;11.40;99.90
23259;DHT22;11798;51.528;7.240;2023-03-24T01:02:56;11.40;99.90
23259;DHT22;11798;51.528;7.240;2023-03-24T01:05:27;11.40;99.90
23259;DHT22;11798;51.528;7.240;2023-03-24T01:07:55;11.40;99.90
23259;DHT22;11798;51.528;7.240;2023-03-24T01:10:22;11.40;99.90
23259;DHT22;11798;51.528;7.240;2023-03-24T01:12:52;11.40;99.90
23259;DHT22;11798;51.528;7.240;2023-03-24T01:15:19;11.40;99.90
23259;DHT22;11798;51.528;7.240;2023-03-24T01:17:45;11.40;99.90
23259;DHT22;11798;51.528;7.240;2023-03-24T01:20:13;11.40;99.90
23259;DHT22;11798;51.528;7.240;2023-03-24T01:22:40;11.50;99.90
23259;DHT22;11798;51.528;7.240;2023-03-24T01:25:35;11.50;99.90
23259;DHT22;11798;51.528;7.240;2023-03-24T01:28:02;11.50;99.90
23259;DHT22;11798;51.528;7.240;2023-03-24T01:30:28;11.40;99.90
23259;DHT22;11798;51.528;7.240;2023-03-24T01:32:55;11.50;99.90
23259;DHT22;11798;51.528;7.240;2023-03-24T01:35:23;11.50;99.90
23259;DHT22;11798;51.528;7.240;2023-03-24T01:37:50;11.40;99.90
23259;DHT22;11798;51.528;7.240;2023-03-24T01:40:26;11.50;99.90
23259;DHT22;11798;51.528;7.240;2023-03-24T01:42:52;11.50;99.90
23259;DHT22;11798;51.528;7.240;2023-03-24T01:48:44;11.50;99.90
23259;DHT22;11798;51.528;7.240;2023-03-24T01:53:52;11.50;99.90
23259;DHT22;11798;51.528;7.240;2023-03-24T01:56:19;11.50;99.90
23259;DHT22;11798;51.528;7.240;2023-03-24T01:58:49;11.50;99.90
23259;DHT22;11798;51.528;7.240;2023-03-24T02:01:16;11.50;99.90
23259;DHT22;11798;51.528;7.240;2023-03-24T02:03:43;11.50;99.90
23259;DHT22;11798;51.528;7.240;2023-03-24T02:06:10;11.50;99.90
23259;DHT22;11798;51.528;7.240;2023-03-24T02:11:14;11.50;99.90
23259;DHT22;11798;51.528;7.240;2023-03-24T02:13:40;11.50;99.90
23259;DHT22;11798;51.528;7.240;2023-03-24T02:19:49;11.60;99.90
23259;DHT22;11798;51.528;7.240;2023-03-24T02:25:50;11.50;99.90
23259;DHT22;11798;51.528;7.240;2023-03-24T02:31:32;11.50;99.90
23259;DHT22;11798;51.528;7.240;2023-03-24T02:47:33;11.60;99.90
23259;DHT22;11798;51.528;7.240;2023-03-24T02:50:20;11.50;99.90
23259;DHT22;11798;51.528;7.240;2023-03-24T02:53:21;11.60;99.90
23259;DHT22;11798;51.528;7.240;2023-03-24T02:56:10;11.60;99.90
23259;DHT22;11798;51.528;7.240;2023-03-24T02:58:46;11.60;99.90
23259;DHT22;11798;51.528;7.240;2023-03-24T03:01:19;11.60;99.90
23259;DHT22;11798;51.528;7.240;2023-03-24T03:04:16;11.70;99.90
23259;DHT22;11798;51.528;7.240;2023-03-24T03:06:46;11.70;99.90
23259;DHT22;11798;51.528;7.240;2023-03-24T03:09:16;11.70;99.90
23259;DHT22;11798;51.528;7.240;2023-03-24T03:11:46;11.70;99.90
23259;DHT22;11798;51.528;7.240;2023-03-24T03:14:41;11.70;99.90
23259;DHT22;11798;51.528;7.240;2023-03-24T03:17:18;11.70;99.90
23259;DHT22;11798;51.528;7.240;2023-03-24T03:19:57;11.80;99.90
23259;DHT22;11798;51.528;7.240;2023-03-24T03:22:26;11.80;99.90
23259;DHT22;11798;51.528;7.240;2023-03-24T03:24:55;11.80;99.90
23259;DHT22;11798;51.528;7.240;2023-03-24T03:27:23;11.80;99.90
23259;DHT22;11798;51.528;7.240;2023-03-24T03:30:16;11.90;99.90
23259;DHT22;11798;51.528;7.240;2023-03-24T03:32:55;11.90;99.90
23259;DHT22;11798;51.528;7.240;2023-03-24T03:35:44;11.90;99.90
23259;DHT22;11798;51.528;7.240;2023-03-24T03:38:16;12.00;99.90
23259;DHT22;11798;51.528;7.240;2023-03-24T03:40:53;12.00;99.90
23259;DHT22;11798;51.528;7.240;2023-03-24T03:43:21;12.00;99.90
23259;DHT22;11798;51.528;7.240;2023-03-24T03:45:47;12.00;99.90
23259;DHT22;11798;51.528;7.240;2023-03-24T03:48:14;12.00;99.90
23259;DHT22;11798;51.528;7.240;2023-03-24T03:50:40;12.00;99.90
23259;DHT22;11798;51.528;7.240;2023-03-24T03:53:06;12.00;99.90
23259;DHT22;11798;51.528;7.240;2023-03-24T03:55:33;12.00;99.90
23259;DHT22;11798;51.528;7.240;2023-03-24T03:58:00;12.10;99.90
23259;DHT22;11798;51.528;7.240;2023-03-24T04:00:26;12.10;99.90
23259;DHT22;11798;51.528;7.240;2023-03-24T04:12:01;12.10;99.90
23259;DHT22;11798;51.528;7.240;2023-03-24T04:14:55;12.10;99.90
23259;DHT22;11798;51.528;7.240;2023-03-24T04:30:48;11.90;99.90
23259;DHT22;11798;51.528;7.240;2023-03-24T04:33:37;11.80;99.90
23259;DHT22;11798;51.528;7.240;2023-03-24T04:36:13;11.90;99.90
23259;DHT22;11798;51.528;7.240;2023-03-24T04:38:43;11.80;99.90
23259;DHT22;11798;51.528;7.240;2023-03-24T04:41:10;11.80;99.90
23259;DHT22;11798;51.528;7.240;2023-03-24T04:43:36;11.80;99.90
23259;DHT22;11798;51.528;7.240;2023-03-24T04:46:04;11.70;99.90
23259;DHT22;11798;51.528;7.240;2023-03-24T04:48:31;11.70;99.90
23259;DHT22;11798;51.528;7.240;2023-03-24T04:50:59;11.70;99.90
23259;DHT22;11798;51.528;7.240;2023-03-24T04:53:26;11.70;99.90
23259;DHT22;11798;51.528;7.240;2023-03-24T04:58:19;11.70;99.90
23259;DHT22;11798;51.528;7.240;2023-03-24T05:00:45;11.70;99.90
23259;DHT22;11798;51.528;7.240;2023-03-24T05:03:11;11.70;99.90
23259;DHT22;11798;51.528;7.240;2023-03-24T05:05:43;11.70;99.90
23259;DHT22;11798;51.528;7.240;2023-03-24T05:08:09;11.70;99.90
23259;DHT22;11798;51.528;7.240;2023-03-24T05:10:36;11.70;99.90
23259;DHT22;11798;51.528;7.240;2023-03-24T05:13:02;11.70;99.90
23259;DHT22;11798;51.528;7.240;2023-03-24T05:15:28;11.60;99.90
23259;DHT22;11798;51.528;7.240;2023-03-24T05:17:54;11.60;99.90
23259;DHT22;11798;51.528;7.240;2023-03-24T05:20:20;11.70;99.90
23259;DHT22;11798;51.528;7.240;2023-03-24T05:22:45;11.60;99.90
23259;DHT22;11798;51.528;7.240;2023-03-24T05:25:11;11.60;99.90
23259;DHT22;11798;51.528;7.240;2023-03-24T05:27:37;11.60;99.90
23259;DHT22;11798;51.528;7.240;2023-03-24T05:30:05;11.50;99.90
23259;DHT22;11798;51.528;7.240;2023-03-24T05:32:31;11.50;99.90
23259;DHT22;11798;51.528;7.240;2023-03-24T05:34:57;11.50;99.90
23259;DHT22;11798;51.528;7.240;2023-03-24T05:37:23;11.50;99.90
23259;DHT22;11798;51.528;7.240;2023-03-24T05:39:49;11.40;99.90
23259;DHT22;11798;51.528;7.240;2023-03-24T05:42:15;11.40;99.90
23259;DHT22;11798;51.528;7.240;2023-03-24T05:44:41;11.40;99.90
23259;DHT22;11798;51.528;7.240;2023-03-24T05:47:07;11.30;99.90
23259;DHT22;11798;51.528;7.240;2023-03-24T05:49:33;11.30;99.90
23259;DHT22;11798;51.528;7.240;2023-03-24T05:51:59;11.30;99.90
23259;DHT22;11798;51.528;7.240;2023-03-24T05:54:25;11.30;99.90
23259;DHT22;11798;51.528;7.240;2023-03-24T05:56:50;11.20;99.90
23259;DHT22;11798;51.528;7.240;2023-03-24T05:59:16;11.20;99.90
23259;DHT22;11798;51.528;7.240;2023-03-24T06:01:42;11.00;99.90
23259;DHT22;11798;51.528;7.240;2023-03-24T06:04:08;11.00;99.90
23259;DHT22;11798;51.528;7.240;2023-03-24T06:06:34;10.90;99.90
23259;DHT22;11798;51.528;7.240;2023-03-24T06:08:59;10.90;99.90
23259;DHT22;11798;51.528;7.240;2023-03-24T06:11:27;10.80;99.90
23259;DHT22;11798;51.528;7.240;2023-03-24T06:13:53;10.80;99.90
23259;DHT22;11798;51.528;7.240;2023-03-24T06:16:24;10.80;99.90
23259;DHT22;11798;51.528;7.240;2023-03-24T06:18:50;10.70;99.90
23259;DHT22;11798;51.528;7.240;2023-03-24T06:21:17;10.60;99.90
23259;DHT22;11798;51.528;7.240;2023-03-24T06:23:44;10.50;99.90
23259;DHT22;11798;51.528;7.240;2023-03-24T06:26:11;10.40;99.90
23259;DHT22;11798;51.528;7.240;2023-03-24T06:28:39;10.30;99.90
23259;DHT22;11798;51.528;7.240;2023-03-24T06:31:08;10.20;99.90
23259;DHT22;11798;51.528;7.240;2023-03-24T06:33:43;10.20;99.90
23259;DHT22;11798;51.528;7.240;2023-03-24T06:36:10;10.20;99.90
23259;DHT22;11798;51.528;7.240;2023-03-24T06:38:36;10.10;99.90
23259;DHT22;11798;51.528;7.240;2023-03-24T06:41:03;10.00;99.90
23259;DHT22;11798;51.528;7.240;2023-03-24T06:46:06;10.00;99.90
23259;DHT22;11798;51.528;7.240;2023-03-24T06:48:32;10.00;99.90
23259;DHT22;11798;51.528;7.240;2023-03-24T06:50:58;10.00;99.90
23259;DHT22;11798;51.528;7.240;2023-03-24T06:53:23;10.00;99.90
23259;DHT22;11798;51.528;7.240;2023-03-24T06:55:50;10.10;99.90
23259;DHT22;11798;51.528;7.240;2023-03-24T06:58:16;10.10;99.90
23259;DHT22;11798;51.528;7.240;2023-03-24T07:00:43;10.10;99.90
23259;DHT22;11798;51.528;7.240;2023-03-24T07:03:10;10.20;99.90
23259;DHT22;11798;51.528;7.240;2023-03-24T07:05:40;10.20;99.90
23259;DHT22;11798;51.528;7.240;2023-03-24T07:08:07;10.10;99.90
23259;DHT22;11798;51.528;7.240;2023-03-24T07:10:34;10.20;99.90
23259;DHT22;11798;51.528;7.240;2023-03-24T07:13:00;10.30;99.90
23259;DHT22;11798;51.528;7.240;2023-03-24T07:15:28;10.30;99.90
23259;DHT22;11798;51.528;7.240;2023-03-24T07:17:53;10.40;99.90
23259;DHT22;11798;51.528;7.240;2023-03-24T07:20:19;10.50;99.90
23259;DHT22;11798;51.528;7.240;2023-03-24T07:22:46;10.50;99.90
23259;DHT22;11798;51.528;7.240;2023-03-24T07:25:11;10.50;99.90
23259;DHT22;11798;51.528;7.240;2023-03-24T07:27:39;10.60;99.90
23259;DHT22;11798;51.528;7.240;2023-03-24T07:30:06;10.60;99.90
23259;DHT22;11798;51.528;7.240;2023-03-24T07:32:32;10.70;99.90
23259;DHT22;11798;51.528;7.240;2023-03-24T07:35:07;10.70;99.90
23259;DHT22;11798;51.528;7.240;2023-03-24T07:37:35;10.60;99.90
23259;DHT22;11798;51.528;7.240;2023-03-24T07:40:04;10.60;99.90
23259;DHT22;11798;51.528;7.240;2023-03-24T07:42:36;10.70;99.90
23259;DHT22;11798;51.528;7.240;2023-03-24T07:45:04;10.80;99.90
23259;DHT22;11798;51.528;7.240;2023-03-24T07:47:29;10.80;99.90
23259;DHT22;11798;51.528;7.240;2023-03-24T07:49:56;10.90;99.90
23259;DHT22;11798;51.528;7.240;2023-03-24T07:52:22;10.90;99.90
23259;DHT22;11798;51.528;7.240;2023-03-24T07:54:47;10.90;99.90
23259;DHT22;11798;51.528;7.240;2023-03-24T07:57:13;10.90;99.90
23259;DHT22;11798;51.528;7.240;2023-03-24T07:59:39;10.90;99.90
23259;DHT22;11798;51.528;7.240;2023-03-24T08:02:15;10.90;99.90
23259;DHT22;11798;51.528;7.240;2023-03-24T08:04:41;11.00;99.90
23259;DHT22;11798;51.528;7.240;2023-03-24T08:07:07;11.10;99.90
23259;DHT22;11798;51.528;7.240;2023-03-24T08:09:33;11.10;99.90
23259;DHT22;11798;51.528;7.240;2023-03-24T08:11:59;11.30;99.90
23259;DHT22;11798;51.528;7.240;2023-03-24T08:14:24;11.30;99.90
23259;DHT22;11798;51.528;7.240;2023-03-24T08:16:50;11.40;99.90
23259;DHT22;11798;51.528;7.240;2023-03-24T08:19:16;11.50;99.90
23259;DHT22;11798;51.528;7.240;2023-03-24T08:21:41;11.50;99.90
23259;DHT22;11798;51.528;7.240;2023-03-24T08:24:07;11.60;99.90
23259;DHT22;11798;51.528;7.240;2023-03-24T08:26:33;11.60;99.90
23259;DHT22;11798;51.528;7.240;2023-03-24T08:29:00;11.70;99.90
23259;DHT22;11798;51.528;7.240;2023-03-24T08:31:33;11.80;99.90
23259;DHT22;11798;51.528;7.240;2023-03-24T08:33:59;11.90;99.90
23259;DHT22;11798;51.528;7.240;2023-03-24T08:36:25;12.00;99.90
23259;DHT22;11798;51.528;7.240;2023-03-24T08:38:56;12.20;99.90
23259;DHT22;11798;51.528;7.240;2023-03-24T08:41:23;12.30;99.90
23259;DHT22;11798;51.528;7.240;2023-03-24T08:44:02;12.40;99.90
23259;DHT22;11798;51.528;7.240;2023-03-24T08:46:32;12.50;99.90
23259;DHT22;11798;51.528;7.240;2023-03-24T08:48:58;12.50;99.90
23259;DHT22;11798;51.528;7.240;2023-03-24T08:51:25;12.50;99.90
23259;DHT22;11798;51.528;7.240;2023-03-24T08:53:51;12.40;99.90
23259;DHT22;11798;51.528;7.240;2023-03-24T08:56:19;12.30;99.90
23259;DHT22;11798;51.528;7.240;2023-03-24T08:58:45;12.20;99.90
23259;DHT22;11798;51.528;7.240;2023-03-24T09:01:19;12.30;99.90
23259;DHT22;11798;51.528;7.240;2023-03-24T09:03:45;12.30;99.90
23259;DHT22;11798;51.528;7.240;2023-03-24T09:06:12;12.30;99.90
23259;DHT22;11798;51.528;7.240;2023-03-24T09:08:38;12.40;99.90
23259;DHT22;11798;51.528;7.240;2023-03-24T09:11:05;12.40;99.90
23259;DHT22;11798;51.528;7.240;2023-03-24T09:13:31;12.30;99.90
23259;DHT22;11798;51.528;7.240;2023-03-24T09:16:01;12.50;99.90
23259;DHT22;11798;51.528;7.240;2023-03-24T09:18:27;12.50;99.90
23259;DHT22;11798;51.528;7.240;2023-03-24T09:20:53;12.50;99.90
23259;DHT22;11798;51.528;7.240;2023-03-24T09:23:20;12.50;99.90
23259;DHT22;11798;51.528;7.240;2023-03-24T09:25:50;12.70;99.90
23259;DHT22;11798;51.528;7.240;2023-03-24T09:28:17;12.60;99.90
23259;DHT22;11798;51.528;7.240;2023-03-24T09:30:43;12.70;99.90
23259;DHT22;11798;51.528;7.240;2023-03-24T09:33:09;12.80;99.90
23259;DHT22;11798;51.528;7.240;2023-03-24T09:35:35;12.90;99.90
23259;DHT22;11798;51.528;7.240;2023-03-24T09:38:00;13.00;99.90
23259;DHT22;11798;51.528;7.240;2023-03-24T09:40:45;13.10;99.90
23259;DHT22;11798;51.528;7.240;2023-03-24T09:43:28;13.20;99.90
23259;DHT22;11798;51.528;7.240;2023-03-24T09:45:57;13.40;99.90
23259;DHT22;11798;51.528;7.240;2023-03-24T09:56:26;12.90;99.90
23259;DHT22;11798;51.528;7.240;2023-03-24T09:59:09;13.00;99.90
23259;DHT22;11798;51.528;7.240;2023-03-24T10:01:36;12.90;99.90
23259;DHT22;11798;51.528;7.240;2023-03-24T10:04:03;13.00;99.90
23259;DHT22;11798;51.528;7.240;2023-03-24T10:06:39;13.10;99.90
23259;DHT22;11798;51.528;7.240;2023-03-24T10:09:28;13.20;99.90
23259;DHT22;11798;51.528;7.240;2023-03-24T10:12:23;13.20;99.90
23259;DHT22;11798;51.528;7.240;2023-03-24T10:26:26;13.10;99.90
23259;DHT22;11798;51.528;7.240;2023-03-24T10:31:35;13.10;99.90
23259;DHT22;11798;51.528;7.240;2023-03-24T10:34:01;13.10;99.90
23259;DHT22;11798;51.528;7.240;2023-03-24T10:36:28;13.20;99.90
23259;DHT22;11798;51.528;7.240;2023-03-24T10:38:54;13.20;99.90
23259;DHT22;11798;51.528;7.240;2023-03-24T10:41:25;13.30;99.90
23259;DHT22;11798;51.528;7.240;2023-03-24T10:43:55;13.40;99.90
23259;DHT22;11798;51.528;7.240;2023-03-24T10:46:24;13.40;99.90
23259;DHT22;11798;51.528;7.240;2023-03-24T10:48:54;13.30;99.90
23259;DHT22;11798;51.528;7.240;2023-03-24T10:51:32;13.30;99.90
23259;DHT22;11798;51.528;7.240;2023-03-24T10:54:11;13.20;99.90
23259;DHT22;11798;51.528;7.240;2023-03-24T10:56:40;13.20;99.90
23259;DHT22;11798;51.528;7.240;2023-03-24T10:59:29;13.50;99.90
23259;DHT22;11798;51.528;7.240;2023-03-24T11:04:36;13.40;99.90
23259;DHT22;11798;51.528;7.240;2023-03-24T11:07:13;13.20;99.90
23259;DHT22;11798;51.528;7.240;2023-03-24T11:09:45;13.20;99.90
23259;DHT22;11798;51.528;7.240;2023-03-24T11:12:26;13.20;99.90
23259;DHT22;11798;51.528;7.240;2023-03-24T11:14:53;13.10;99.90
23259;DHT22;11798;51.528;7.240;2023-03-24T11:17:26;13.10;99.90
23259;DHT22;11798;51.528;7.240;2023-03-24T11:19:54;13.30;99.90
23259;DHT22;11798;51.528;7.240;2023-03-24T11:22:20;13.30;99.90
23259;DHT22;11798;51.528;7.240;2023-03-24T11:24:49;13.50;99.90
23259;DHT22;11798;51.528;7.240;2023-03-24T11:27:17;13.90;99.90
23259;DHT22;11798;51.528;7.240;2023-03-24T11:29:47;14.10;99.90
23259;DHT22;11798;51.528;7.240;2023-03-24T11:32:24;14.40;99.90
23259;DHT22;11798;51.528;7.240;2023-03-24T11:35:07;14.40;99.90
23259;DHT22;11798;51.528;7.240;2023-03-24T11:37:36;14.60;99.90
23259;DHT22;11798;51.528;7.240;2023-03-24T11:42:58;14.50;99.90
23259;DHT22;11798;51.528;7.240;2023-03-24T11:45:25;14.40;99.90
23259;DHT22;11798;51.528;7.240;2023-03-24T11:47:55;14.30;99.90
23259;DHT22;11798;51.528;7.240;2023-03-24T11:50:37;14.10;99.90
23259;DHT22;11798;51.528;7.240;2023-03-24T11:53:27;13.90;99.90
23259;DHT22;11798;51.528;7.240;2023-03-24T11:56:37;13.70;99.90
23259;DHT22;11798;51.528;7.240;2023-03-24T11:58:47;13.70;99.90
23259;DHT22;11798;51.528;7.240;2023-03-24T12:09:32;14.30;99.90
23259;DHT22;11798;51.528;7.240;2023-03-24T12:17:45;14.30;99.90
23259;DHT22;11798;51.528;7.240;2023-03-24T12:22:51;14.10;99.90
23259;DHT22;11798;51.528;7.240;2023-03-24T12:36:41;14.50;99.90
23259;DHT22;11798;51.528;7.240;2023-03-24T12:39:14;14.50;99.90
23259;DHT22;11798;51.528;7.240;2023-03-24T12:47:29;14.50;99.90
23259;DHT22;11798;51.528;7.240;2023-03-24T12:55:58;14.80;99.90
23259;DHT22;11798;51.528;7.240;2023-03-24T13:04:15;14.80;99.90
23259;DHT22;11798;51.528;7.240;2023-03-24T13:07:08;14.60;99.90
23259;DHT22;11798;51.528;7.240;2023-03-24T13:17:33;14.20;99.90
23259;DHT22;11798;51.528;7.240;2023-03-24T13:20:01;14.10;99.90
23259;DHT22;11798;51.528;7.240;2023-03-24T13:22:33;14.10;99.90
23259;DHT22;11798;51.528;7.240;2023-03-24T13:25:01;14.00;99.90
23259;DHT22;11798;51.528;7.240;2023-03-24T13:27:36;14.00;99.90
23259;DHT22;11798;51.528;7.240;2023-03-24T13:30:22;14.10;99.90
23259;DHT22;11798;51.528;7.240;2023-03-24T13:33:28;14.20;99.90
23259;DHT22;11798;51.528;7.240;2023-03-24T13:41:11;14.10;99.90
23259;DHT22;11798;51.528;7.240;2023-03-24T13:43:46;14.20;99.90
23259;DHT22;11798;51.528;7.240;2023-03-24T13:46:13;14.30;99.90
23259;DHT22;11798;51.528;7.240;2023-03-24T13:48:41;14.30;99.90
23259;DHT22;11798;51.528;7.240;2023-03-24T13:51:32;14.10;99.90
23259;DHT22;11798;51.528;7.240;2023-03-24T13:54:20;14.00;99.90
23259;DHT22;11798;51.528;7.240;2023-03-24T13:56:52;13.90;99.90
23259;DHT22;11798;51.528;7.240;2023-03-24T13:59:39;13.70;99.90
23259;DHT22;11798;51.528;7.240;2023-03-24T14:02:22;13.50;99.90
23259;DHT22;11798;51.528;7.240;2023-03-24T14:05:06;13.30;99.90
23259;DHT22;11798;51.528;7.240;2023-03-24T14:07:42;12.90;99.90
23259;DHT22;11798;51.528;7.240;2023-03-24T14:12:53;12.70;99.90
23259;DHT22;11798;51.528;7.240;2023-03-24T14:15:21;12.70;99.90
23259;DHT22;11798;51.528;7.240;2023-03-24T14:17:53;12.60;99.90
23259;DHT22;11798;51.528;7.240;2023-03-24T14:21:03;12.80;99.90
23259;DHT22;11798;51.528;7.240;2023-03-24T14:28:46;13.10;99.90
23259;DHT22;11798;51.528;7.240;2023-03-24T14:38:51;13.00;99.90
23259;DHT22;11798;51.528;7.240;2023-03-24T14:41:28;13.00;99.90
23259;DHT22;11798;51.528;7.240;2023-03-24T14:43:57;12.90;99.90
23259;DHT22;11798;51.528;7.240;2023-03-24T14:46:37;12.80;99.90
23259;DHT22;11798;51.528;7.240;2023-03-24T14:49:23;12.90;99.90
23259;DHT22;11798;51.528;7.240;2023-03-24T14:54:33;12.50;99.90
23259;DHT22;11798;51.528;7.240;2023-03-24T14:56:59;12.60;99.90
23259;DHT22;11798;51.528;7.240;2023-03-24T15:02:34;12.40;99.90
23259;DHT22;11798;51.528;7.240;2023-03-24T15:05:31;12.50;99.90
23259;DHT22;11798;51.528;7.240;2023-03-24T15:08:19;12.30;99.90
23259;DHT22;11798;51.528;7.240;2023-03-24T15:11:00;12.10;99.90
23259;DHT22;11798;51.528;7.240;2023-03-24T15:13:40;12.00;99.90
23259;DHT22;11798;51.528;7.240;2023-03-24T15:18:44;12.40;99.90
23259;DHT22;11798;51.528;7.240;2023-03-24T15:23:49;13.00;99.90
23259;DHT22;11798;51.528;7.240;2023-03-24T15:26:18;13.30;99.90
23259;DHT22;11798;51.528;7.240;2023-03-24T15:28:56;13.20;99.90
23259;DHT22;11798;51.528;7.240;2023-03-24T15:31:24;13.20;99.90
23259;DHT22;11798;51.528;7.240;2023-03-24T15:34:05;13.30;99.90
23259;DHT22;11798;51.528;7.240;2023-03-24T15:36:39;13.00;99.90
23259;DHT22;11798;51.528;7.240;2023-03-24T15:39:19;12.90;99.90
23259;DHT22;11798;51.528;7.240;2023-03-24T15:41:53;13.00;99.90
23259;DHT22;11798;51.528;7.240;2023-03-24T15:44:27;13.10;99.90
23259;DHT22;11798;51.528;7.240;2023-03-24T15:46:57;13.10;99.90
23259;DHT22;11798;51.528;7.240;2023-03-24T15:49:35;13.00;99.90
23259;DHT22;11798;51.528;7.240;2023-03-24T15:52:30;12.80;99.90
23259;DHT22;11798;51.528;7.240;2023-03-24T15:57:52;12.90;99.90
23259;DHT22;11798;51.528;7.240;2023-03-24T16:00:25;12.90;99.90
23259;DHT22;11798;51.528;7.240;2023-03-24T16:02:59;12.90;99.90
23259;DHT22;11798;51.528;7.240;2023-03-24T16:05:35;12.80;99.90
23259;DHT22;11798;51.528;7.240;2023-03-24T16:11:04;12.50;99.90
23259;DHT22;11798;51.528;7.240;2023-03-24T16:13:33;12.50;99.90
23259;DHT22;11798;51.528;7.240;2023-03-24T16:18:42;12.20;99.90
23259;DHT22;11798;51.528;7.240;2023-03-24T16:21:18;12.10;99.90
23259;DHT22;11798;51.528;7.240;2023-03-24T16:23:45;11.80;99.90
23259;DHT22;11798;51.528;7.240;2023-03-24T16:26:28;11.80;99.90
23259;DHT22;11798;51.528;7.240;2023-03-24T16:29:20;11.30;99.90
23259;DHT22;11798;51.528;7.240;2023-03-24T16:31:48;11.20;99.90
23259;DHT22;11798;51.528;7.240;2023-03-24T16:34:23;11.10;99.90
23259;DHT22;11798;51.528;7.240;2023-03-24T16:36:51;11.00;99.90
23259;DHT22;11798;51.528;7.240;2023-03-24T16:39:22;10.90;99.90
23259;DHT22;11798;51.528;7.240;2023-03-24T16:41:50;11.00;99.90
23259;DHT22;11798;51.528;7.240;2023-03-24T16:44:17;10.90;99.90
23259;DHT22;11798;51.528;7.240;2023-03-24T16:46:47;10.90;99.90
23259;DHT22;11798;51.528;7.240;2023-03-24T16:49:22;11.00;99.90
23259;DHT22;11798;51.528;7.240;2023-03-24T16:51:54;11.00;99.90
23259;DHT22;11798;51.528;7.240;2023-03-24T16:54:24;11.10;99.90
23259;DHT22;11798;51.528;7.240;2023-03-24T16:56:54;11.10;99.90
23259;DHT22;11798;51.528;7.240;2023-03-24T16:59:20;11.30;99.90
23259;DHT22;11798;51.528;7.240;2023-03-24T17:01:47;11.30;99.90
23259;DHT22;11798;51.528;7.240;2023-03-24T17:04:18;11.20;99.90
23259;DHT22;11798;51.528;7.240;2023-03-24T17:06:46;11.10;99.90
23259;DHT22;11798;51.528;7.240;2023-03-24T17:09:14;11.10;99.90
23259;DHT22;11798;51.528;7.240;2023-03-24T17:11:46;11.00;99.90
23259;DHT22;11798;51.528;7.240;2023-03-24T17:14:15;11.00;99.90
23259;DHT22;11798;51.528;7.240;2023-03-24T17:16:45;10.90;99.90
23259;DHT22;11798;51.528;7.240;2023-03-24T17:19:18;10.70;99.90
23259;DHT22;11798;51.528;7.240;2023-03-24T17:21:57;10.60;99.90
23259;DHT22;11798;51.528;7.240;2023-03-24T17:24:32;10.50;99.90
23259;DHT22;11798;51.528;7.240;2023-03-24T17:27:00;10.40;99.90
23259;DHT22;11798;51.528;7.240;2023-03-24T17:29:27;10.30;99.90
23259;DHT22;11798;51.528;7.240;2023-03-24T17:31:56;10.30;99.90
23259;DHT22;11798;51.528;7.240;2023-03-24T17:34:22;10.30;99.90
23259;DHT22;11798;51.528;7.240;2023-03-24T17:36:49;10.30;99.90
23259;DHT22;11798;51.528;7.240;2023-03-24T17:39:24;10.30;99.90
23259;DHT22;11798;51.528;7.240;2023-03-24T17:41:59;10.30;99.90
23259;DHT22;11798;51.528;7.240;2023-03-24T17:44:26;10.20;99.90
23259;DHT22;11798;51.528;7.240;2023-03-24T17:46:52;10.10;99.90
23259;DHT22;11798;51.528;7.240;2023-03-24T17:49:18;10.10;99.90
23259;DHT22;11798;51.528;7.240;2023-03-24T17:51:43;9.90;99.90
23259;DHT22;11798;51.528;7.240;2023-03-24T17:54:09;9.80;99.90
23259;DHT22;11798;51.528;7.240;2023-03-24T17:56:36;9.90;99.90
23259;DHT22;11798;51.528;7.240;2023-03-24T17:59:02;9.80;99.90
23259;DHT22;11798;51.528;7.240;2023-03-24T18:01:29;9.80;99.90
23259;DHT22;11798;51.528;7.240;2023-03-24T18:03:55;9.80;99.90
23259;DHT22;11798;51.528;7.240;2023-03-24T18:06:21;9.70;99.90
23259;DHT22;11798;51.528;7.240;2023-03-24T18:08:50;9.70;99.90
23259;DHT22;11798;51.528;7.240;2023-03-24T18:11:15;9.60;99.90
23259;DHT22;11798;51.528;7.240;2023-03-24T18:13:42;9.60;99.90
23259;DHT22;11798;51.528;7.240;2023-03-24T18:16:09;9.60;99.90
23259;DHT22;11798;51.528;7.240;2023-03-24T18:18:36;9.50;99.90
23259;DHT22;11798;51.528;7.240;2023-03-24T18:21:04;9.50;99.90
23259;DHT22;11798;51.528;7.240;2023-03-24T18:23:34;9.50;99.90
23259;DHT22;11798;51.528;7.240;2023-03-24T18:26:06;9.50;99.90
23259;DHT22;11798;51.528;7.240;2023-03-24T18:28:33;9.50;99.90
23259;DHT22;11798;51.528;7.240;2023-03-24T18:30:59;9.40;99.90
23259;DHT22;11798;51.528;7.240;2023-03-24T18:33:25;9.40;99.90
23259;DHT22;11798;51.528;7.240;2023-03-24T18:35:56;9.40;99.90
23259;DHT22;11798;51.528;7.240;2023-03-24T18:38:22;9.40;99.90
23259;DHT22;11798;51.528;7.240;2023-03-24T18:41:03;9.40;99.90
23259;DHT22;11798;51.528;7.240;2023-03-24T18:43:29;9.40;99.90
23259;DHT22;11798;51.528;7.240;2023-03-24T18:45:56;9.40;99.90
23259;DHT22;11798;51.528;7.240;2023-03-24T18:48:22;9.40;99.90
23259;DHT22;11798;51.528;7.240;2023-03-24T18:50:49;9.40;99.90
23259;DHT22;11798;51.528;7.240;2023-03-24T18:53:19;9.40;99.90
23259;DHT22;11798;51.528;7.240;2023-03-24T18:55:47;9.40;99.90